sensor_id;sensor_type;location;lat;lon;timestamp;pressure;altitude;pressure_sealevel;temperature;humidity
77207;BME280;66190;50.708;7.906;2023-09-08T00:00:46;96682.75;;;21.20;53.82
77207;BME280;66190;50.708;7.906;2023-09-08T00:03:12;96681.91;;;21.20;53.55
77207;BME280;66190;50.708;7.906;2023-09-08T00:05:37;96683.81;;;21.14;53.65
77207;BME280;66190;50.708;7.906;2023-09-08T00:08:03;96677.50;;;21.14;53.47
77207;BME280;66190;50.708;7.906;2023-09-08T00:10:28;96686.56;;;21.14;53.46
77207;BME280;66190;50.708;7.906;2023-09-08T00:12:53;96684.31;;;21.11;53.46
77207;BME280;66190;50.708;7.906;2023-09-08T00:15:19;96677.75;;;21.07;53.77
77207;BME280;66190;50.708;7.906;2023-09-08T00:17:44;96680.47;;;21.07;53.92
77207;BME280;66190;50.708;7.906;2023-09-08T00:20:12;96683.72;;;21.04;54.19
77207;BME280;66190;50.708;7.906;2023-09-08T00:22:38;96681.81;;;21.05;53.60
77207;BME280;66190;50.708;7.906;2023-09-08T00:25:04;96684.78;;;20.98;54.07
77207;BME280;66190;50.708;7.906;2023-09-08T00:27:31;96692.47;;;21.01;54.00
77207;BME280;66190;50.708;7.906;2023-09-08T00:29:56;96681.25;;;21.03;54.21
77207;BME280;66190;50.708;7.906;2023-09-08T00:32:22;96682.00;;;20.93;54.59
77207;BME280;66190;50.708;7.906;2023-09-08T00:34:47;96678.22;;;20.99;54.11
77207;BME280;66190;50.708;7.906;2023-09-08T00:37:13;96680.63;;;20.96;54.41
77207;BME280;66190;50.708;7.906;2023-09-08T00:39:38;96676.53;;;20.93;54.36
77207;BME280;66190;50.708;7.906;2023-09-08T00:42:04;96679.25;;;20.93;54.29
77207;BME280;66190;50.708;7.906;2023-09-08T00:44:30;96680.03;;;20.89;55.00
77207;BME280;66190;50.708;7.906;2023-09-08T00:46:56;96674.81;;;20.87;54.85
77207;BME280;66190;50.708;7.906;2023-09-08T00:49:21;96673.16;;;20.81;54.99
77207;BME280;66190;50.708;7.906;2023-09-08T00:51:47;96675.91;;;20.86;54.55
77207;BME280;66190;50.708;7.906;2023-09-08T00:54:14;96669.59;;;20.86;54.72
77207;BME280;66190;50.708;7.906;2023-09-08T00:56:40;96668.22;;;20.83;54.61
77207;BME280;66190;50.708;7.906;2023-09-08T00:59:05;96672.63;;;20.84;54.50
77207;BME280;66190;50.708;7.906;2023-09-08T01:01:31;96671.25;;;20.87;54.56
77207;BME280;66190;50.708;7.906;2023-09-08T01:03:57;96672.66;;;20.89;54.68
77207;BME280;66190;50.708;7.906;2023-09-08T01:06:23;96667.72;;;20.86;54.58
77207;BME280;66190;50.708;7.906;2023-09-08T01:08:50;96673.19;;;20.86;54.56
77207;BME280;66190;50.708;7.906;2023-09-08T01:11:17;96668.28;;;20.88;54.50
77207;BME280;66190;50.708;7.906;2023-09-08T01:13:44;96665.25;;;20.85;54.41
77207;BME280;66190;50.708;7.906;2023-09-08T01:16:10;96666.88;;;20.86;54.79
77207;BME280;66190;50.708;7.906;2023-09-08T01:18:35;96658.94;;;20.84;54.43
77207;BME280;66190;50.708;7.906;2023-09-08T01:23:59;96659.47;;;20.81;54.70
77207;BME280;66190;50.708;7.906;2023-09-08T01:26:36;96663.00;;;20.82;54.87
77207;BME280;66190;50.708;7.906;2023-09-08T01:29:05;96656.97;;;20.80;54.83
77207;BME280;66190;50.708;7.906;2023-09-08T01:31:31;96664.63;;;20.78;54.69
77207;BME280;66190;50.708;7.906;2023-09-08T01:33:56;96663.22;;;20.75;55.17
77207;BME280;66190;50.708;7.906;2023-09-08T01:36:22;96661.88;;;20.73;55.02
77207;BME280;66190;50.708;7.906;2023-09-08T01:38:47;96660.75;;;20.74;54.88
77207;BME280;66190;50.708;7.906;2023-09-08T01:41:12;96663.50;;;20.74;55.06
77207;BME280;66190;50.708;7.906;2023-09-08T01:43:38;96649.00;;;20.73;55.29
77207;BME280;66190;50.708;7.906;2023-09-08T01:46:03;96658.28;;;20.72;55.33
77207;BME280;66190;50.708;7.906;2023-09-08T01:48:29;96653.28;;;20.64;55.50
77207;BME280;66190;50.708;7.906;2023-09-08T01:50:54;96657.13;;;20.63;55.50
77207;BME280;66190;50.708;7.906;2023-09-08T01:53:19;96650.50;;;20.59;55.66
77207;BME280;66190;50.708;7.906;2023-09-08T01:55:45;96658.97;;;20.58;55.72
77207;BME280;66190;50.708;7.906;2023-09-08T01:58:10;96650.78;;;20.58;55.78
77207;BME280;66190;50.708;7.906;2023-09-08T02:00:36;96654.59;;;20.57;55.77
77207;BME280;66190;50.708;7.906;2023-09-08T02:03:01;96657.03;;;20.53;55.94
77207;BME280;66190;50.708;7.906;2023-09-08T02:05:26;96654.56;;;20.52;55.81
77207;BME280;66190;50.708;7.906;2023-09-08T02:07:52;96652.34;;;20.49;56.52
77207;BME280;66190;50.708;7.906;2023-09-08T02:10:17;96654.75;;;20.45;55.87
77207;BME280;66190;50.708;7.906;2023-09-08T02:12:43;96654.75;;;20.45;56.15
77207;BME280;66190;50.708;7.906;2023-09-08T02:15:08;96652.81;;;20.41;56.03
77207;BME280;66190;50.708;7.906;2023-09-08T02:17:36;96651.41;;;20.38;56.45
77207;BME280;66190;50.708;7.906;2023-09-08T02:20:01;96651.19;;;20.40;56.40
77207;BME280;66190;50.708;7.906;2023-09-08T02:22:27;96647.03;;;20.37;56.33
77207;BME280;66190;50.708;7.906;2023-09-08T02:24:53;96649.47;;;20.33;56.49
77207;BME280;66190;50.708;7.906;2023-09-08T02:27:18;96646.69;;;20.28;56.83
77207;BME280;66190;50.708;7.906;2023-09-08T02:29:44;96645.38;;;20.31;56.39
77207;BME280;66190;50.708;7.906;2023-09-08T02:32:09;96643.13;;;20.28;56.25
77207;BME280;66190;50.708;7.906;2023-09-08T02:34:36;96643.97;;;20.28;56.06
77207;BME280;66190;50.708;7.906;2023-09-08T02:37:04;96645.59;;;20.29;56.17
77207;BME280;66190;50.708;7.906;2023-09-08T02:39:29;96649.69;;;20.27;56.07
77207;BME280;66190;50.708;7.906;2023-09-08T02:41:55;96642.63;;;20.31;56.15
77207;BME280;66190;50.708;7.906;2023-09-08T02:44:20;96639.06;;;20.30;55.81
77207;BME280;66190;50.708;7.906;2023-09-08T02:46:47;96639.91;;;20.31;55.79
77207;BME280;66190;50.708;7.906;2023-09-08T02:49:13;96639.34;;;20.29;56.44
77207;BME280;66190;50.708;7.906;2023-09-08T02:51:38;96643.44;;;20.31;55.83
77207;BME280;66190;50.708;7.906;2023-09-08T02:54:03;96640.44;;;20.33;55.93
77207;BME280;66190;50.708;7.906;2023-09-08T02:56:29;96641.50;;;20.27;56.03
77207;BME280;66190;50.708;7.906;2023-09-08T02:58:54;96640.34;;;20.23;56.10
77207;BME280;66190;50.708;7.906;2023-09-08T03:01:20;96636.47;;;20.19;56.12
77207;BME280;66190;50.708;7.906;2023-09-08T03:03:46;96644.44;;;20.20;56.42
77207;BME280;66190;50.708;7.906;2023-09-08T03:06:13;96638.72;;;20.22;56.14
77207;BME280;66190;50.708;7.906;2023-09-08T03:08:38;96633.81;;;20.24;56.15
77207;BME280;66190;50.708;7.906;2023-09-08T03:11:04;96635.16;;;20.21;56.68
77207;BME280;66190;50.708;7.906;2023-09-08T03:13:31;96639.47;;;20.17;56.74
77207;BME280;66190;50.708;7.906;2023-09-08T03:15:56;96638.88;;;20.15;56.72
77207;BME280;66190;50.708;7.906;2023-09-08T03:18:22;96640.22;;;20.13;57.00
77207;BME280;66190;50.708;7.906;2023-09-08T03:20:51;96632.25;;;20.06;57.34
77207;BME280;66190;50.708;7.906;2023-09-08T03:23:16;96641.25;;;20.07;56.74
77207;BME280;66190;50.708;7.906;2023-09-08T03:25:42;96636.88;;;20.06;57.25
77207;BME280;66190;50.708;7.906;2023-09-08T03:28:08;96629.69;;;20.00;57.20
77207;BME280;66190;50.708;7.906;2023-09-08T03:30:33;96634.34;;;19.99;57.13
77207;BME280;66190;50.708;7.906;2023-09-08T03:32:59;96625.28;;;19.94;57.57
77207;BME280;66190;50.708;7.906;2023-09-08T03:35:24;96634.56;;;19.93;57.50
77207;BME280;66190;50.708;7.906;2023-09-08T03:37:49;96624.13;;;19.90;57.72
77207;BME280;66190;50.708;7.906;2023-09-08T03:40:15;96629.03;;;19.88;58.05
77207;BME280;66190;50.708;7.906;2023-09-08T03:42:40;96626.56;;;19.86;58.05
77207;BME280;66190;50.708;7.906;2023-09-08T03:45:07;96631.13;;;19.81;58.51
77207;BME280;66190;50.708;7.906;2023-09-08T03:47:33;96627.03;;;19.78;58.47
77207;BME280;66190;50.708;7.906;2023-09-08T03:49:58;96628.06;;;19.77;58.96
77207;BME280;66190;50.708;7.906;2023-09-08T03:52:23;96615.78;;;19.75;58.69
77207;BME280;66190;50.708;7.906;2023-09-08T03:54:49;96616.34;;;19.77;58.60
77207;BME280;66190;50.708;7.906;2023-09-08T03:57:15;96617.38;;;19.71;58.97
77207;BME280;66190;50.708;7.906;2023-09-08T03:59:40;96622.25;;;19.69;59.07
77207;BME280;66190;50.708;7.906;2023-09-08T04:02:05;96621.72;;;19.67;59.11
77207;BME280;66190;50.708;7.906;2023-09-08T04:04:31;96615.94;;;19.63;59.29
77207;BME280;66190;50.708;7.906;2023-09-08T04:06:56;96614.78;;;19.59;59.26
77207;BME280;66190;50.708;7.906;2023-09-08T04:09:22;96621.31;;;19.58;59.81
77207;BME280;66190;50.708;7.906;2023-09-08T04:11:47;96610.91;;;19.55;59.92
77207;BME280;66190;50.708;7.906;2023-09-08T04:14:12;96615.47;;;19.50;59.85
77207;BME280;66190;50.708;7.906;2023-09-08T04:16:38;96622.34;;;19.52;60.00
77207;BME280;66190;50.708;7.906;2023-09-08T04:19:03;96618.66;;;19.42;60.44
77207;BME280;66190;50.708;7.906;2023-09-08T04:21:29;96614.53;;;19.39;60.25
77207;BME280;66190;50.708;7.906;2023-09-08T04:23:54;96621.91;;;19.39;60.43
77207;BME280;66190;50.708;7.906;2023-09-08T04:26:19;96618.03;;;19.35;60.64
77207;BME280;66190;50.708;7.906;2023-09-08T04:28:45;96617.72;;;19.31;60.72
77207;BME280;66190;50.708;7.906;2023-09-08T04:31:10;96624.16;;;19.25;60.88
77207;BME280;66190;50.708;7.906;2023-09-08T04:33:35;96611.25;;;19.20;61.18
77207;BME280;66190;50.708;7.906;2023-09-08T04:36:01;96619.38;;;19.15;61.71
77207;BME280;66190;50.708;7.906;2023-09-08T04:38:26;96624.19;;;19.08;61.91
77207;BME280;66190;50.708;7.906;2023-09-08T04:40:52;96627.69;;;19.04;61.96
77207;BME280;66190;50.708;7.906;2023-09-08T04:43:17;96630.81;;;18.96;62.38
77207;BME280;66190;50.708;7.906;2023-09-08T04:45:42;96635.16;;;18.92;62.28
77207;BME280;66190;50.708;7.906;2023-09-08T04:48:08;96635.28;;;18.85;63.32
77207;BME280;66190;50.708;7.906;2023-09-08T04:50:33;96632.41;;;18.75;63.06
77207;BME280;66190;50.708;7.906;2023-09-08T04:52:59;96637.13;;;18.63;64.55
77207;BME280;66190;50.708;7.906;2023-09-08T04:55:25;96639.22;;;18.56;63.44
77207;BME280;66190;50.708;7.906;2023-09-08T04:57:50;96640.69;;;18.47;63.67
77207;BME280;66190;50.708;7.906;2023-09-08T05:00:16;96645.09;;;18.37;64.30
77207;BME280;66190;50.708;7.906;2023-09-08T05:02:41;96643.31;;;18.26;65.24
77207;BME280;66190;50.708;7.906;2023-09-08T05:05:07;96643.94;;;18.16;65.44
77207;BME280;66190;50.708;7.906;2023-09-08T05:07:33;96636.44;;;18.06;65.19
77207;BME280;66190;50.708;7.906;2023-09-08T05:10:07;96645.47;;;17.95;65.10
77207;BME280;66190;50.708;7.906;2023-09-08T05:12:34;96641.81;;;17.90;65.24
77207;BME280;66190;50.708;7.906;2023-09-08T05:14:59;96645.44;;;17.79;65.90
77207;BME280;66190;50.708;7.906;2023-09-08T05:17:31;96648.16;;;17.79;65.40
77207;BME280;66190;50.708;7.906;2023-09-08T05:19:57;96655.25;;;17.80;65.77
77207;BME280;66190;50.708;7.906;2023-09-08T05:22:22;96655.50;;;17.78;65.88
77207;BME280;66190;50.708;7.906;2023-09-08T05:24:47;96654.16;;;17.81;66.19
77207;BME280;66190;50.708;7.906;2023-09-08T05:27:13;96656.75;;;17.87;66.12
77207;BME280;66190;50.708;7.906;2023-09-08T05:29:38;96652.78;;;17.95;66.08
77207;BME280;66190;50.708;7.906;2023-09-08T05:32:04;96654.31;;;18.02;65.74
77207;BME280;66190;50.708;7.906;2023-09-08T05:34:29;96655.06;;;18.14;65.27
77207;BME280;66190;50.708;7.906;2023-09-08T05:36:54;96654.91;;;18.21;65.49
77207;BME280;66190;50.708;7.906;2023-09-08T05:39:20;96658.31;;;18.28;65.05
77207;BME280;66190;50.708;7.906;2023-09-08T05:41:45;96662.44;;;18.31;65.60
77207;BME280;66190;50.708;7.906;2023-09-08T05:44:11;96663.13;;;18.38;65.75
77207;BME280;66190;50.708;7.906;2023-09-08T05:46:36;96666.78;;;18.43;65.74
77207;BME280;66190;50.708;7.906;2023-09-08T05:49:02;96666.38;;;18.51;65.61
77207;BME280;66190;50.708;7.906;2023-09-08T05:51:27;96666.53;;;18.61;65.13
77207;BME280;66190;50.708;7.906;2023-09-08T05:53:52;96671.25;;;18.66;65.59
77207;BME280;66190;50.708;7.906;2023-09-08T05:56:18;96673.81;;;18.72;65.64
77207;BME280;66190;50.708;7.906;2023-09-08T05:58:44;96677.53;;;18.66;66.66
77207;BME280;66190;50.708;7.906;2023-09-08T06:01:10;96681.75;;;18.57;67.46
77207;BME280;66190;50.708;7.906;2023-09-08T06:03:35;96683.31;;;18.25;69.82
77207;BME280;66190;50.708;7.906;2023-09-08T06:06:01;96676.69;;;18.21;70.21
77207;BME280;66190;50.708;7.906;2023-09-08T06:08:26;96685.56;;;18.28;69.15
77207;BME280;66190;50.708;7.906;2023-09-08T06:10:52;96680.09;;;18.28;68.74
77207;BME280;66190;50.708;7.906;2023-09-08T06:13:17;96681.34;;;18.37;68.98
77207;BME280;66190;50.708;7.906;2023-09-08T06:15:42;96690.31;;;18.49;68.13
77207;BME280;66190;50.708;7.906;2023-09-08T06:18:08;96688.50;;;18.55;68.91
77207;BME280;66190;50.708;7.906;2023-09-08T06:20:33;96685.63;;;18.61;68.04
77207;BME280;66190;50.708;7.906;2023-09-08T06:22:59;96685.78;;;18.71;68.96
77207;BME280;66190;50.708;7.906;2023-09-08T06:25:24;96688.69;;;18.81;68.39
77207;BME280;66190;50.708;7.906;2023-09-08T06:27:50;96690.75;;;18.91;68.87
77207;BME280;66190;50.708;7.906;2023-09-08T06:30:15;96685.75;;;19.04;68.46
77207;BME280;66190;50.708;7.906;2023-09-08T06:32:43;96695.81;;;19.20;68.18
77207;BME280;66190;50.708;7.906;2023-09-08T06:35:08;96688.47;;;19.38;67.11
77207;BME280;66190;50.708;7.906;2023-09-08T06:37:37;96687.53;;;19.49;66.64
77207;BME280;66190;50.708;7.906;2023-09-08T06:40:04;96681.44;;;19.63;67.66
77207;BME280;66190;50.708;7.906;2023-09-08T06:42:30;96681.63;;;19.78;66.85
77207;BME280;66190;50.708;7.906;2023-09-08T06:44:55;96680.69;;;19.89;66.29
77207;BME280;66190;50.708;7.906;2023-09-08T06:47:21;96683.53;;;19.99;67.36
77207;BME280;66190;50.708;7.906;2023-09-08T06:49:46;96673.00;;;20.13;66.11
77207;BME280;66190;50.708;7.906;2023-09-08T06:52:12;96677.53;;;20.24;66.93
77207;BME280;66190;50.708;7.906;2023-09-08T06:54:37;96661.50;;;20.33;65.99
77207;BME280;66190;50.708;7.906;2023-09-08T06:57:03;96669.84;;;20.48;65.53
77207;BME280;66190;50.708;7.906;2023-09-08T06:59:28;96665.03;;;20.60;66.21
77207;BME280;66190;50.708;7.906;2023-09-08T07:01:54;96674.97;;;20.71;65.21
77207;BME280;66190;50.708;7.906;2023-09-08T07:04:19;96668.47;;;20.82;64.59
77207;BME280;66190;50.708;7.906;2023-09-08T07:06:44;96669.38;;;20.92;62.48
77207;BME280;66190;50.708;7.906;2023-09-08T07:09:11;96662.94;;;21.03;61.90
77207;BME280;66190;50.708;7.906;2023-09-08T07:11:37;96667.41;;;21.14;62.59
77207;BME280;66190;50.708;7.906;2023-09-08T07:14:03;96665.78;;;21.23;63.01
77207;BME280;66190;50.708;7.906;2023-09-08T07:16:28;96671.28;;;21.28;62.16
77207;BME280;66190;50.708;7.906;2023-09-08T07:18:53;96663.66;;;21.35;61.40
77207;BME280;66190;50.708;7.906;2023-09-08T07:21:19;96670.56;;;21.43;60.76
77207;BME280;66190;50.708;7.906;2023-09-08T07:23:44;96673.91;;;21.55;60.63
77207;BME280;66190;50.708;7.906;2023-09-08T07:26:10;96675.34;;;21.63;60.61
77207;BME280;66190;50.708;7.906;2023-09-08T07:28:35;96676.19;;;21.73;60.27
77207;BME280;66190;50.708;7.906;2023-09-08T07:31:02;96675.72;;;21.81;59.95
77207;BME280;66190;50.708;7.906;2023-09-08T07:33:28;96670.25;;;21.91;58.20
77207;BME280;66190;50.708;7.906;2023-09-08T07:35:53;96669.75;;;21.99;59.47
77207;BME280;66190;50.708;7.906;2023-09-08T07:38:19;96667.31;;;22.08;58.70
77207;BME280;66190;50.708;7.906;2023-09-08T07:40:44;96676.09;;;22.15;57.83
77207;BME280;66190;50.708;7.906;2023-09-08T07:43:09;96669.03;;;22.29;58.44
77207;BME280;66190;50.708;7.906;2023-09-08T07:45:35;96674.78;;;22.37;58.43
77207;BME280;66190;50.708;7.906;2023-09-08T07:48:00;96666.56;;;22.42;57.18
77207;BME280;66190;50.708;7.906;2023-09-08T07:50:28;96673.16;;;22.51;57.69
77207;BME280;66190;50.708;7.906;2023-09-08T07:52:55;96667.72;;;22.57;57.72
77207;BME280;66190;50.708;7.906;2023-09-08T07:55:21;96673.22;;;22.67;56.42
77207;BME280;66190;50.708;7.906;2023-09-08T07:57:53;96661.69;;;22.75;56.63
77207;BME280;66190;50.708;7.906;2023-09-08T08:00:18;96674.88;;;22.78;56.35
77207;BME280;66190;50.708;7.906;2023-09-08T08:02:49;96666.91;;;22.86;55.64
77207;BME280;66190;50.708;7.906;2023-09-08T08:05:15;96674.84;;;22.93;54.97
77207;BME280;66190;50.708;7.906;2023-09-08T08:07:42;96668.81;;;23.01;54.94
77207;BME280;66190;50.708;7.906;2023-09-08T08:10:08;96669.34;;;23.08;54.06
77207;BME280;66190;50.708;7.906;2023-09-08T08:12:35;96670.72;;;23.15;54.45
77207;BME280;66190;50.708;7.906;2023-09-08T08:15:00;96666.84;;;23.21;53.87
77207;BME280;66190;50.708;7.906;2023-09-08T08:17:26;96673.19;;;23.22;52.83
77207;BME280;66190;50.708;7.906;2023-09-08T08:19:55;96665.22;;;23.25;53.44
77207;BME280;66190;50.708;7.906;2023-09-08T08:22:21;96674.00;;;23.37;54.22
77207;BME280;66190;50.708;7.906;2023-09-08T08:24:46;96677.00;;;23.46;54.29
77207;BME280;66190;50.708;7.906;2023-09-08T08:27:12;96675.34;;;23.50;54.75
77207;BME280;66190;50.708;7.906;2023-09-08T08:29:38;96681.94;;;23.54;53.52
77207;BME280;66190;50.708;7.906;2023-09-08T08:32:04;96676.16;;;23.60;52.60
77207;BME280;66190;50.708;7.906;2023-09-08T08:34:30;96671.75;;;23.65;52.58
77207;BME280;66190;50.708;7.906;2023-09-08T08:36:55;96680.22;;;23.73;53.58
77207;BME280;66190;50.708;7.906;2023-09-08T08:39:21;96679.66;;;23.81;53.67
77207;BME280;66190;50.708;7.906;2023-09-08T08:41:46;96676.31;;;23.84;52.37
77207;BME280;66190;50.708;7.906;2023-09-08T08:44:12;96676.56;;;23.93;51.60
77207;BME280;66190;50.708;7.906;2023-09-08T08:46:38;96676.31;;;23.99;51.68
77207;BME280;66190;50.708;7.906;2023-09-08T08:49:05;96670.25;;;24.02;52.29
77207;BME280;66190;50.708;7.906;2023-09-08T08:51:32;96673.50;;;24.09;51.38
77207;BME280;66190;50.708;7.906;2023-09-08T08:53:58;96670.75;;;24.09;51.00
77207;BME280;66190;50.708;7.906;2023-09-08T08:56:26;96682.00;;;24.13;50.70
77207;BME280;66190;50.708;7.906;2023-09-08T08:58:52;96669.03;;;24.23;51.74
77207;BME280;66190;50.708;7.906;2023-09-08T09:01:17;96671.75;;;24.28;52.18
77207;BME280;66190;50.708;7.906;2023-09-08T09:03:46;96679.44;;;24.31;51.66
77207;BME280;66190;50.708;7.906;2023-09-08T09:06:14;96671.47;;;24.30;51.39
77207;BME280;66190;50.708;7.906;2023-09-08T09:08:42;96673.63;;;24.38;52.08
77207;BME280;66190;50.708;7.906;2023-09-08T09:11:08;96670.06;;;24.37;50.68
77207;BME280;66190;50.708;7.906;2023-09-08T09:13:33;96661.81;;;24.37;50.90
77207;BME280;66190;50.708;7.906;2023-09-08T09:16:00;96674.41;;;24.43;49.24
77207;BME280;66190;50.708;7.906;2023-09-08T09:18:26;96675.72;;;24.56;50.47
77207;BME280;66190;50.708;7.906;2023-09-08T09:20:55;96667.94;;;24.63;51.27
77207;BME280;66190;50.708;7.906;2023-09-08T09:23:34;96667.91;;;24.73;52.50
77207;BME280;66190;50.708;7.906;2023-09-08T09:26:02;96670.03;;;24.86;50.99
77207;BME280;66190;50.708;7.906;2023-09-08T09:28:31;96672.16;;;24.94;52.07
77207;BME280;66190;50.708;7.906;2023-09-08T09:30:57;96683.09;;;24.99;51.05
77207;BME280;66190;50.708;7.906;2023-09-08T09:33:24;96684.91;;;25.14;49.42
77207;BME280;66190;50.708;7.906;2023-09-08T09:35:52;96671.88;;;25.24;49.85
77207;BME280;66190;50.708;7.906;2023-09-08T09:38:19;96672.38;;;25.31;48.25
77207;BME280;66190;50.708;7.906;2023-09-08T09:40:48;96669.03;;;25.34;48.15
77207;BME280;66190;50.708;7.906;2023-09-08T09:43:20;96671.47;;;25.36;46.89
77207;BME280;66190;50.708;7.906;2023-09-08T09:45:46;96671.16;;;25.42;49.02
77207;BME280;66190;50.708;7.906;2023-09-08T09:48:11;96666.06;;;25.54;47.82
77207;BME280;66190;50.708;7.906;2023-09-08T09:50:39;96669.47;;;25.46;47.64
77207;BME280;66190;50.708;7.906;2023-09-08T09:55:34;96665.75;;;25.61;48.00
77207;BME280;66190;50.708;7.906;2023-09-08T09:58:02;96665.28;;;25.54;47.45
77207;BME280;66190;50.708;7.906;2023-09-08T10:00:29;96666.47;;;25.71;48.10
77207;BME280;66190;50.708;7.906;2023-09-08T10:02:56;96666.91;;;25.78;46.39
77207;BME280;66190;50.708;7.906;2023-09-08T10:05:23;96667.66;;;25.60;47.05
77207;BME280;66190;50.708;7.906;2023-09-08T10:07:50;96658.91;;;25.77;49.64
77207;BME280;66190;50.708;7.906;2023-09-08T10:10:16;96663.16;;;25.93;48.60
77207;BME280;66190;50.708;7.906;2023-09-08T10:12:49;96650.25;;;26.12;48.04
77207;BME280;66190;50.708;7.906;2023-09-08T10:15:20;96668.09;;;26.20;47.79
77207;BME280;66190;50.708;7.906;2023-09-08T10:17:50;96666.06;;;26.02;46.18
77207;BME280;66190;50.708;7.906;2023-09-08T10:20:18;96662.47;;;26.01;47.47
77207;BME280;66190;50.708;7.906;2023-09-08T10:22:47;96668.81;;;26.02;46.40
77207;BME280;66190;50.708;7.906;2023-09-08T10:25:16;96664.56;;;26.14;46.64
77207;BME280;66190;50.708;7.906;2023-09-08T10:27:44;96666.53;;;26.32;49.02
77207;BME280;66190;50.708;7.906;2023-09-08T10:30:10;96663.03;;;26.45;45.88
77207;BME280;66190;50.708;7.906;2023-09-08T10:32:36;96667.78;;;26.58;45.31
77207;BME280;66190;50.708;7.906;2023-09-08T10:35:03;96655.56;;;26.46;44.07
77207;BME280;66190;50.708;7.906;2023-09-08T10:37:29;96658.09;;;26.61;44.30
77207;BME280;66190;50.708;7.906;2023-09-08T10:39:55;96655.28;;;26.47;43.91
77207;BME280;66190;50.708;7.906;2023-09-08T10:42:25;96656.75;;;26.40;44.46
77207;BME280;66190;50.708;7.906;2023-09-08T10:45:00;96662.50;;;26.43;46.02
77207;BME280;66190;50.708;7.906;2023-09-08T10:47:55;96653.56;;;26.51;44.78
77207;BME280;66190;50.708;7.906;2023-09-08T10:50:35;96659.31;;;26.55;43.79
77207;BME280;66190;50.708;7.906;2023-09-08T10:55:40;96648.00;;;26.88;45.55
77207;BME280;66190;50.708;7.906;2023-09-08T10:58:09;96663.31;;;27.00;44.84
77207;BME280;66190;50.708;7.906;2023-09-08T11:00:51;96658.53;;;27.05;43.66
77207;BME280;66190;50.708;7.906;2023-09-08T11:06:06;96655.16;;;27.08;43.25
77207;BME280;66190;50.708;7.906;2023-09-08T11:08:38;96650.88;;;27.16;44.00
77207;BME280;66190;50.708;7.906;2023-09-08T11:11:04;96653.94;;;27.14;44.06
77207;BME280;66190;50.708;7.906;2023-09-08T11:13:29;96651.34;;;27.04;42.18
77207;BME280;66190;50.708;7.906;2023-09-08T11:15:55;96652.03;;;26.96;43.90
77207;BME280;66190;50.708;7.906;2023-09-08T11:18:28;96653.81;;;27.06;45.96
77207;BME280;66190;50.708;7.906;2023-09-08T11:20:54;96645.16;;;27.26;45.89
77207;BME280;66190;50.708;7.906;2023-09-08T11:23:25;96645.94;;;27.45;44.34
77207;BME280;66190;50.708;7.906;2023-09-08T11:25:52;96650.16;;;27.56;45.64
77207;BME280;66190;50.708;7.906;2023-09-08T11:28:21;96651.69;;;27.62;43.21
77207;BME280;66190;50.708;7.906;2023-09-08T11:30:47;96650.66;;;27.71;43.29
77207;BME280;66190;50.708;7.906;2023-09-08T11:33:20;96652.53;;;27.62;43.70
77207;BME280;66190;50.708;7.906;2023-09-08T11:35:53;96656.19;;;27.58;43.90
77207;BME280;66190;50.708;7.906;2023-09-08T11:38:24;96651.50;;;27.72;44.00
77207;BME280;66190;50.708;7.906;2023-09-08T11:40:50;96654.38;;;27.80;44.32
77207;BME280;66190;50.708;7.906;2023-09-08T11:43:16;96652.53;;;27.76;44.96
77207;BME280;66190;50.708;7.906;2023-09-08T11:45:42;96645.38;;;27.88;45.59
77207;BME280;66190;50.708;7.906;2023-09-08T11:48:08;96631.97;;;27.96;43.25
77207;BME280;66190;50.708;7.906;2023-09-08T11:50:33;96637.41;;;28.01;43.15
77207;BME280;66190;50.708;7.906;2023-09-08T11:52:59;96640.97;;;28.01;42.47
77207;BME280;66190;50.708;7.906;2023-09-08T11:55:25;96645.28;;;27.93;41.02
77207;BME280;66190;50.708;7.906;2023-09-08T11:57:52;96643.81;;;27.82;41.04
77207;BME280;66190;50.708;7.906;2023-09-08T12:00:26;96638.69;;;27.89;43.11
77207;BME280;66190;50.708;7.906;2023-09-08T12:02:53;96645.03;;;27.63;40.81
77207;BME280;66190;50.708;7.906;2023-09-08T12:05:23;96652.53;;;27.76;41.19
77207;BME280;66190;50.708;7.906;2023-09-08T12:07:53;96650.81;;;27.80;41.57
77207;BME280;66190;50.708;7.906;2023-09-08T12:10:19;96653.75;;;27.70;42.50
77207;BME280;66190;50.708;7.906;2023-09-08T12:12:47;96640.03;;;27.51;42.07
77207;BME280;66190;50.708;7.906;2023-09-08T12:15:29;96635.13;;;27.75;42.60
77207;BME280;66190;50.708;7.906;2023-09-08T12:17:57;96634.69;;;27.68;41.00
77207;BME280;66190;50.708;7.906;2023-09-08T12:20:22;96642.38;;;27.71;43.47
77207;BME280;66190;50.708;7.906;2023-09-08T12:22:49;96631.84;;;27.60;44.77
77207;BME280;66190;50.708;7.906;2023-09-08T12:25:18;96634.50;;;27.78;43.14
77207;BME280;66190;50.708;7.906;2023-09-08T12:27:45;96631.84;;;27.73;43.23
77207;BME280;66190;50.708;7.906;2023-09-08T12:30:17;96626.63;;;27.72;43.71
77207;BME280;66190;50.708;7.906;2023-09-08T12:32:45;96622.41;;;27.88;44.05
77207;BME280;66190;50.708;7.906;2023-09-08T12:35:11;96629.28;;;27.77;43.91
77207;BME280;66190;50.708;7.906;2023-09-08T12:37:38;96621.91;;;27.86;41.51
77207;BME280;66190;50.708;7.906;2023-09-08T12:40:04;96629.91;;;28.15;44.75
77207;BME280;66190;50.708;7.906;2023-09-08T12:42:29;96628.34;;;28.22;44.00
77207;BME280;66190;50.708;7.906;2023-09-08T12:44:55;96628.41;;;29.02;43.61
77207;BME280;66190;50.708;7.906;2023-09-08T12:47:21;96632.75;;;28.94;42.80
77207;BME280;66190;50.708;7.906;2023-09-08T12:49:46;96626.53;;;28.67;41.00
77207;BME280;66190;50.708;7.906;2023-09-08T12:52:12;96633.31;;;28.83;42.05
77207;BME280;66190;50.708;7.906;2023-09-08T12:54:37;96628.22;;;28.76;42.51
77207;BME280;66190;50.708;7.906;2023-09-08T12:57:03;96628.66;;;28.70;44.70
77207;BME280;66190;50.708;7.906;2023-09-08T12:59:28;96626.06;;;28.73;42.33
77207;BME280;66190;50.708;7.906;2023-09-08T13:01:55;96624.22;;;28.33;42.33
77207;BME280;66190;50.708;7.906;2023-09-08T13:04:20;96630.41;;;28.66;41.98
77207;BME280;66190;50.708;7.906;2023-09-08T13:06:47;96632.53;;;28.69;41.81